createdAt,value
2022-08-11T00:02:30.091Z,2.50
2022-08-11T00:05:03.008Z,2.20
2022-08-11T00:07:32.000Z,2.10
2022-08-11T00:10:01.807Z,2.43
2022-08-11T00:12:31.837Z,2.00
2022-08-11T00:15:02.261Z,2.03
2022-08-11T00:17:33.781Z,1.60
2022-08-11T00:20:14.361Z,2.10
2022-08-11T00:22:48.382Z,1.90
2022-08-11T00:25:19.004Z,1.90
2022-08-11T00:27:49.986Z,1.87
2022-08-11T00:30:18.772Z,2.10
2022-08-11T00:32:59.398Z,1.90
2022-08-11T00:35:50.908Z,1.70
2022-08-11T00:38:25.768Z,2.03
2022-08-11T00:41:01.510Z,2.00
2022-08-11T00:43:46.501Z,2.40
2022-08-11T00:46:23.597Z,1.93
2022-08-11T00:49:17.279Z,2.30
2022-08-11T00:52:05.818Z,2.10
2022-08-11T00:55:04.806Z,2.47
2022-08-11T00:58:03.068Z,2.87
2022-08-11T01:00:47.816Z,1.73
2022-08-11T01:03:45.510Z,2.33
2022-08-11T01:06:39.175Z,2.10
2022-08-11T01:09:30.054Z,2.20
2022-08-11T01:12:25.432Z,2.23
2022-08-11T01:15:31.059Z,2.00
2022-08-11T01:18:35.391Z,2.00
2022-08-11T01:21:52.962Z,2.47
2022-08-11T01:24:52.578Z,2.13
2022-08-11T01:28:02.752Z,2.23
2022-08-11T01:31:04.538Z,2.50
2022-08-11T01:34:34.248Z,2.00
2022-08-11T01:37:17.236Z,2.10
2022-08-11T01:40:27.086Z,2.00
2022-08-11T01:43:51.451Z,2.27
2022-08-11T01:46:26.168Z,2.20
2022-08-11T01:50:05.200Z,2.47
2022-08-11T01:52:09.852Z,1.97
2022-08-11T01:54:44.661Z,2.50
2022-08-11T01:57:34.176Z,2.20
2022-08-11T02:00:08.966Z,2.77
2022-08-11T02:02:47.989Z,2.30
2022-08-11T02:05:30.036Z,2.50
2022-08-11T02:08:09.830Z,2.30
2022-08-11T02:11:02.906Z,2.63
2022-08-11T02:13:41.357Z,2.40
2022-08-11T02:16:27.979Z,2.50
2022-08-11T02:19:24.039Z,2.63
2022-08-11T02:22:18.594Z,2.93
2022-08-11T02:24:55.441Z,2.70
2022-08-11T02:27:26.328Z,2.40
2022-08-11T02:30:07.277Z,2.97
2022-08-11T02:33:00.215Z,2.70
2022-08-11T02:35:43.147Z,3.23
2022-08-11T02:38:21.880Z,2.40
2022-08-11T02:41:02.022Z,3.23
2022-08-11T02:43:48.702Z,2.90
2022-08-11T02:46:24.445Z,2.90
2022-08-11T02:49:18.799Z,2.77
2022-08-11T02:52:09.654Z,2.90
2022-08-11T02:54:46.249Z,3.03
2022-08-11T02:57:23.609Z,2.73
2022-08-11T02:59:56.100Z,2.60
2022-08-11T03:02:51.331Z,3.10
2022-08-11T03:05:45.218Z,2.83
2022-08-11T03:08:30.240Z,2.70
2022-08-11T03:11:23.962Z,2.60
2022-08-11T03:14:28.431Z,2.80
2022-08-11T03:17:02.121Z,2.87
2022-08-11T03:19:40.919Z,3.20
2022-08-11T03:22:20.137Z,2.90
2022-08-11T03:25:02.403Z,2.40
2022-08-11T03:27:40.268Z,2.93
2022-08-11T03:30:16.444Z,2.73
2022-08-11T03:33:24.037Z,2.80
2022-08-11T03:36:04.732Z,2.40
2022-08-11T03:38:47.097Z,2.50
2022-08-11T03:42:01.948Z,3.40
2022-08-11T03:44:49.579Z,2.20
2022-08-11T03:47:52.397Z,2.50
2022-08-11T03:50:53.111Z,2.60
2022-08-11T03:53:50.170Z,2.73
2022-08-11T03:57:04.286Z,2.80
2022-08-11T04:00:08.988Z,2.20
2022-08-11T04:03:31.392Z,3.37
2022-08-11T04:06:38.665Z,2.60
2022-08-11T04:09:48.804Z,2.53
2022-08-11T04:12:36.310Z,2.90
2022-08-11T04:16:11.043Z,2.80
2022-08-11T04:19:24.086Z,2.87
2022-08-11T04:22:37.834Z,2.90
2022-08-11T04:25:27.407Z,3.33
2022-08-11T04:28:29.253Z,3.10
2022-08-11T04:31:51.363Z,3.03
2022-08-11T04:34:36.786Z,3.30
2022-08-11T04:37:35.412Z,2.57
2022-08-11T04:40:33.931Z,2.80
2022-08-11T04:44:02.794Z,2.57
2022-08-11T04:46:54.804Z,3.20
2022-08-11T04:50:17.912Z,3.20
2022-08-11T04:53:28.964Z,3.50
2022-08-11T04:56:35.317Z,3.20
2022-08-11T04:59:59.080Z,3.23
2022-08-11T05:03:14.748Z,2.90
2022-08-11T05:06:19.913Z,3.60
2022-08-11T05:09:18.322Z,3.23
2022-08-11T05:12:11.021Z,3.40
2022-08-11T05:15:14.446Z,3.13
2022-08-11T05:18:12.895Z,3.27
2022-08-11T05:21:05.853Z,3.30
2022-08-11T05:23:54.754Z,3.40
2022-08-11T05:26:47.611Z,2.77
2022-08-11T05:29:50.372Z,3.70
2022-08-11T05:32:36.999Z,3.33
2022-08-11T05:35:08.434Z,2.97
2022-08-11T05:37:57.804Z,3.20
2022-08-11T05:40:51.431Z,2.87
2022-08-11T05:44:20.532Z,3.10
2022-08-11T05:46:49.410Z,3.27
2022-08-11T05:49:35.019Z,3.80
2022-08-11T05:52:31.872Z,3.30
2022-08-11T05:55:22.102Z,2.80
2022-08-11T05:57:56.076Z,2.67
2022-08-11T06:00:24.620Z,3.17
2022-08-11T06:02:55.148Z,3.30
2022-08-11T06:05:26.166Z,3.30
2022-08-11T06:07:57.337Z,3.03
2022-08-11T06:10:33.119Z,3.23
2022-08-11T06:13:03.239Z,3.03
2022-08-11T06:15:37.347Z,3.70
2022-08-11T06:18:06.582Z,4.03
2022-08-11T06:20:45.190Z,3.20
2022-08-11T06:23:18.757Z,2.80
2022-08-11T06:25:47.575Z,3.43
2022-08-11T06:28:20.705Z,2.67
2022-08-11T06:30:50.046Z,3.07
2022-08-11T06:33:22.448Z,3.10
2022-08-11T06:36:01.070Z,3.37
2022-08-11T06:38:49.125Z,2.90
2022-08-11T06:41:34.729Z,2.60
2022-08-11T06:44:16.681Z,3.30
2022-08-11T06:46:47.965Z,3.57
2022-08-11T06:49:35.117Z,3.70
2022-08-11T06:52:05.154Z,2.97
2022-08-11T06:54:38.574Z,2.97
2022-08-11T06:57:29.884Z,4.30
2022-08-11T07:00:28.838Z,3.30
2022-08-11T07:03:04.309Z,3.27
2022-08-11T07:05:45.981Z,3.10
2022-08-11T07:08:53.563Z,3.93
2022-08-11T07:12:16.243Z,7.60
2022-08-11T07:15:14.398Z,5.97
2022-08-11T07:17:51.492Z,3.10
2022-08-11T07:20:37.204Z,3.43
2022-08-11T07:23:27.661Z,3.70
2022-08-11T07:26:15.177Z,3.00
2022-08-11T07:28:57.945Z,3.33
2022-08-11T07:31:33.355Z,3.70
2022-08-11T07:34:18.134Z,3.43
2022-08-11T07:36:51.429Z,2.77
2022-08-11T07:39:23.630Z,3.80
2022-08-11T07:41:54.566Z,3.20
2022-08-11T07:44:34.447Z,3.00
2022-08-11T07:47:23.326Z,3.20
2022-08-11T07:50:12.938Z,2.83
2022-08-11T07:52:41.509Z,3.20
2022-08-11T07:55:14.357Z,3.00
2022-08-11T07:58:19.426Z,3.80
2022-08-11T08:01:10.023Z,3.60
2022-08-11T08:03:57.496Z,3.30
2022-08-11T08:06:45.888Z,3.40
2022-08-11T08:09:34.256Z,3.10
2022-08-11T08:12:21.667Z,3.00
2022-08-11T08:15:07.839Z,3.03
2022-08-11T08:18:20.852Z,3.60
2022-08-11T08:20:49.742Z,3.40
2022-08-11T08:23:32.873Z,3.10
2022-08-11T08:26:29.820Z,3.10
2022-08-11T08:29:15.971Z,3.10
2022-08-11T08:31:44.958Z,3.23
2022-08-11T08:34:16.457Z,3.60
2022-08-11T08:36:47.803Z,3.83
2022-08-11T08:39:21.639Z,3.30
2022-08-11T08:41:53.976Z,3.30
2022-08-11T08:44:41.524Z,3.20
2022-08-11T08:47:15.025Z,3.80
2022-08-11T08:50:06.095Z,2.90
2022-08-11T08:52:43.694Z,3.20
2022-08-11T08:55:18.666Z,3.27
2022-08-11T08:57:49.371Z,3.53
2022-08-11T09:00:22.978Z,3.23
2022-08-11T09:02:53.112Z,2.87
2022-08-11T09:05:23.764Z,3.13
2022-08-11T09:07:55.010Z,3.07
2022-08-11T09:10:25.361Z,2.60
2022-08-11T09:12:54.321Z,3.13
2022-08-11T09:15:23.309Z,2.70
2022-08-11T09:18:03.642Z,2.70
2022-08-11T09:20:34.340Z,3.20
2022-08-11T09:24:08.798Z,2.90
2022-08-11T09:26:30.910Z,2.80
2022-08-11T09:29:01.231Z,3.30
2022-08-11T09:31:38.717Z,2.90
2022-08-11T09:34:08.667Z,3.50
2022-08-11T09:36:54.777Z,2.90
2022-08-11T09:39:40.703Z,2.83
2022-08-11T09:42:16.388Z,2.73
2022-08-11T09:44:50.890Z,3.03
2022-08-11T09:47:24.617Z,2.50
2022-08-11T09:50:01.023Z,2.70
2022-08-11T09:52:33.214Z,3.27
2022-08-11T09:55:02.063Z,2.63
2022-08-11T09:57:48.728Z,2.83
2022-08-11T10:00:17.729Z,2.80
2022-08-11T10:02:47.963Z,2.63
2022-08-11T10:05:36.961Z,3.30
2022-08-11T10:08:08.334Z,2.70
2022-08-11T10:10:38.938Z,3.07
2022-08-11T10:14:30.471Z,3.20
2022-08-11T10:16:15.803Z,3.00
2022-08-11T10:18:53.188Z,2.70
2022-08-11T10:21:29.023Z,3.10
2022-08-11T10:24:17.280Z,2.77
2022-08-11T10:27:00.843Z,3.00
2022-08-11T10:29:51.271Z,3.10
2022-08-11T10:32:57.292Z,2.70
2022-08-11T10:35:28.314Z,2.80
2022-08-11T10:38:07.358Z,3.43
2022-08-11T10:40:39.917Z,3.03
2022-08-11T10:43:13.713Z,7.67
2022-08-11T10:46:04.734Z,4.50
2022-08-11T10:48:38.293Z,2.63
2022-08-11T10:51:50.020Z,3.93
2022-08-11T10:54:26.986Z,3.20
2022-08-11T10:57:13.683Z,2.83
2022-08-11T10:59:43.314Z,3.00
2022-08-11T11:02:15.901Z,2.87
2022-08-11T11:05:00.424Z,3.03
2022-08-11T11:07:41.504Z,2.60
2022-08-11T11:10:12.531Z,2.97
2022-08-11T11:13:02.123Z,3.00
2022-08-11T11:15:55.553Z,3.20
2022-08-11T11:18:29.572Z,2.50
2022-08-11T11:21:01.266Z,2.63
2022-08-11T11:23:34.828Z,2.83
2022-08-11T11:26:35.079Z,3.40
2022-08-11T11:29:40.504Z,3.67
2022-08-11T11:32:18.659Z,2.93
2022-08-11T11:35:18.058Z,3.23
2022-08-11T11:38:03.638Z,4.80
2022-08-11T11:40:34.938Z,3.50
2022-08-11T11:43:03.651Z,3.63
2022-08-11T11:45:32.332Z,3.37
2022-08-11T11:48:04.333Z,3.13
2022-08-11T11:50:36.797Z,3.40
2022-08-11T11:53:07.763Z,3.33
2022-08-11T11:55:37.050Z,2.60
2022-08-11T11:58:24.023Z,2.93
2022-08-11T12:01:10.985Z,3.00
2022-08-11T12:03:40.521Z,3.20
2022-08-11T12:06:12.114Z,3.70
2022-08-11T12:08:40.181Z,3.23
2022-08-11T12:11:28.747Z,2.87
2022-08-11T12:13:59.504Z,2.80
2022-08-11T12:16:34.190Z,2.70
2022-08-11T12:19:07.016Z,2.27
2022-08-11T12:21:39.583Z,3.03
2022-08-11T12:24:28.551Z,3.10
2022-08-11T12:27:18.117Z,3.90
2022-08-11T12:29:54.525Z,3.20
2022-08-11T12:32:24.534Z,2.50
2022-08-11T12:34:52.672Z,2.93
2022-08-11T12:37:30.009Z,2.63
2022-08-11T12:40:43.408Z,2.50
2022-08-11T12:43:38.129Z,3.03
2022-08-11T12:46:15.243Z,2.70
2022-08-11T12:49:04.898Z,2.50
2022-08-11T12:52:12.292Z,2.87
2022-08-11T12:54:52.782Z,2.60
2022-08-11T12:57:45.039Z,2.80
2022-08-11T13:00:31.416Z,2.97
2022-08-11T13:03:17.621Z,2.80
2022-08-11T13:05:49.657Z,3.27
2022-08-11T13:08:19.043Z,2.80
2022-08-11T13:11:13.949Z,3.20
2022-08-11T13:13:53.438Z,3.73
2022-08-11T13:16:26.188Z,2.97
2022-08-11T13:18:54.715Z,2.67
2022-08-11T13:21:23.871Z,2.63
2022-08-11T13:24:01.568Z,3.10
2022-08-11T13:26:49.967Z,2.90
2022-08-11T13:29:24.025Z,2.53
2022-08-11T13:31:53.494Z,2.47
2022-08-11T13:34:23.973Z,2.57
2022-08-11T13:36:53.683Z,2.67
2022-08-11T13:39:24.531Z,2.63
2022-08-11T13:41:56.395Z,2.87
2022-08-11T13:44:28.119Z,2.63
2022-08-11T13:46:58.378Z,2.97
2022-08-11T13:49:28.032Z,3.20
2022-08-11T13:51:57.071Z,2.60
2022-08-11T13:54:28.447Z,2.97
2022-08-11T13:57:03.275Z,2.80
2022-08-11T13:59:52.035Z,2.70
2022-08-11T14:02:29.081Z,2.63
2022-08-11T14:05:00.176Z,2.70
2022-08-11T14:07:35.482Z,2.33
2022-08-11T14:10:07.722Z,3.00
2022-08-11T14:12:56.699Z,2.67
2022-08-11T14:15:31.233Z,2.63
2022-08-11T14:18:04.952Z,2.50
2022-08-11T14:20:49.237Z,2.77
2022-08-11T14:23:19.019Z,2.63
2022-08-11T14:26:02.391Z,2.53
2022-08-11T14:28:44.498Z,2.50
2022-08-11T14:31:14.967Z,2.80
2022-08-11T14:34:00.913Z,2.40
2022-08-11T14:36:33.887Z,2.67
2022-08-11T14:39:05.175Z,3.13
2022-08-11T14:42:12.665Z,3.40
2022-08-11T14:45:17.066Z,2.43
2022-08-11T14:47:48.636Z,2.40
2022-08-11T14:50:22.980Z,2.43
2022-08-11T14:52:55.450Z,3.37
2022-08-11T14:55:43.939Z,2.27
2022-08-11T14:58:14.165Z,2.73
2022-08-11T15:00:44.583Z,2.80
2022-08-11T15:03:14.112Z,2.80
2022-08-11T15:05:57.506Z,3.17
2022-08-11T15:08:46.694Z,3.27
2022-08-11T15:11:34.120Z,2.70
2022-08-11T15:14:06.031Z,2.53
2022-08-11T15:16:53.987Z,2.80
2022-08-11T15:19:22.306Z,2.33
2022-08-11T15:22:08.655Z,3.00
2022-08-11T15:24:37.482Z,3.27
2022-08-11T15:27:28.061Z,2.40
2022-08-11T15:30:26.850Z,3.13
2022-08-11T15:33:24.865Z,2.77
2022-08-11T15:36:12.449Z,3.03
2022-08-11T15:38:45.361Z,3.10
2022-08-11T15:41:35.954Z,2.30
2022-08-11T15:44:44.523Z,2.90
2022-08-11T15:47:15.515Z,3.20
2022-08-11T15:50:11.213Z,3.00
2022-08-11T15:52:40.459Z,3.07
2022-08-11T15:55:10.849Z,2.57
2022-08-11T15:58:01.612Z,2.70
2022-08-11T16:00:48.687Z,2.70
2022-08-11T16:03:54.399Z,3.20
2022-08-11T16:06:36.467Z,3.00
2022-08-11T16:09:17.921Z,2.97
2022-08-11T16:11:47.740Z,3.13
2022-08-11T16:14:36.048Z,2.80
2022-08-11T16:17:06.821Z,3.10
2022-08-11T16:19:37.835Z,2.93
2022-08-11T16:22:12.340Z,2.87
2022-08-11T16:27:04.288Z,3.57
2022-08-11T16:27:37.395Z,3.27
2022-08-11T16:30:07.245Z,2.77
2022-08-11T16:32:37.742Z,3.30
2022-08-11T16:35:27.269Z,3.20
2022-08-11T16:38:15.424Z,2.67
2022-08-11T16:40:44.788Z,3.20
2022-08-11T16:43:37.294Z,3.20
2022-08-11T16:46:26.395Z,2.80
2022-08-11T16:48:55.917Z,3.20
2022-08-11T16:51:24.542Z,3.40
2022-08-11T16:54:03.212Z,3.00
2022-08-11T16:56:37.147Z,3.00
2022-08-11T16:59:15.994Z,2.43
2022-08-11T17:01:48.193Z,2.67
2022-08-11T17:04:39.558Z,2.90
2022-08-11T17:07:41.960Z,2.63
2022-08-11T17:10:50.991Z,2.57
2022-08-11T17:13:29.979Z,2.80
2022-08-11T17:16:11.444Z,3.33
2022-08-11T17:18:45.383Z,3.20
2022-08-11T17:21:19.050Z,2.97
2022-08-11T17:23:50.527Z,5.00
2022-08-11T17:26:46.862Z,3.30
2022-08-11T17:29:17.933Z,2.80
2022-08-11T17:32:04.536Z,2.90
2022-08-11T17:34:50.548Z,2.90
2022-08-11T17:37:19.675Z,3.47
2022-08-11T17:39:48.621Z,3.13
2022-08-11T17:42:36.416Z,3.40
2022-08-11T17:45:24.110Z,2.97
2022-08-11T17:48:09.826Z,2.73
2022-08-11T17:50:38.758Z,2.57
2022-08-11T17:53:24.637Z,3.10
2022-08-11T17:56:11.911Z,3.00
2022-08-11T17:58:59.859Z,3.23
2022-08-11T18:01:29.171Z,3.13
2022-08-11T18:03:58.339Z,3.00
2022-08-11T18:06:33.725Z,4.00
2022-08-11T18:09:22.419Z,3.30
2022-08-11T18:12:11.423Z,2.97
2022-08-11T18:15:03.118Z,2.70
2022-08-11T18:17:48.566Z,3.13
2022-08-11T18:20:34.066Z,2.70
2022-08-11T18:23:40.575Z,3.13
2022-08-11T18:26:30.638Z,3.20
2022-08-11T18:29:17.683Z,2.67
2022-08-11T18:32:08.483Z,3.33
2022-08-11T18:34:59.896Z,3.40
2022-08-11T18:37:49.847Z,3.50
2022-08-11T18:40:38.469Z,3.40
2022-08-11T18:43:27.478Z,3.57
2022-08-11T18:46:19.973Z,4.00
2022-08-11T18:49:14.964Z,3.77
2022-08-11T18:52:05.326Z,3.80
2022-08-11T18:54:55.486Z,3.40
2022-08-11T18:57:49.860Z,3.57
2022-08-11T19:00:41.865Z,3.20
2022-08-11T19:03:30.424Z,3.47
2022-08-11T19:06:39.945Z,3.27
2022-08-11T19:09:30.584Z,3.70
2022-08-11T19:12:17.840Z,3.60
2022-08-11T19:15:06.375Z,3.60
2022-08-11T19:17:54.447Z,3.40
2022-08-11T19:20:43.591Z,3.50
2022-08-11T19:23:33.948Z,3.03
2022-08-11T19:26:21.281Z,3.50
2022-08-11T19:29:08.100Z,3.83
2022-08-11T19:31:55.794Z,3.53
2022-08-11T19:34:43.298Z,3.10
2022-08-11T19:37:29.737Z,3.70
2022-08-11T19:40:20.361Z,3.20
2022-08-11T19:43:16.878Z,3.40
2022-08-11T19:46:13.544Z,3.70
2022-08-11T19:49:00.859Z,3.77
2022-08-11T19:51:47.940Z,3.27
2022-08-11T19:54:42.646Z,3.43
2022-08-11T19:57:34.544Z,3.23
2022-08-11T20:00:24.645Z,3.17
2022-08-11T20:03:16.268Z,4.00
2022-08-11T20:06:02.276Z,3.40
2022-08-11T20:08:50.975Z,3.90
2022-08-11T20:11:39.195Z,2.97
2022-08-11T20:14:28.386Z,3.00
2022-08-11T20:17:15.293Z,3.00
2022-08-11T20:20:02.032Z,3.20
2022-08-11T20:22:49.749Z,3.40
2022-08-11T20:25:36.536Z,3.57
2022-08-11T20:28:23.966Z,3.30
2022-08-11T20:31:11.930Z,3.27
2022-08-11T20:33:59.387Z,3.13
2022-08-11T20:36:49.948Z,3.70
2022-08-11T20:39:41.614Z,4.17
2022-08-11T20:42:30.490Z,3.67
2022-08-11T20:45:23.626Z,3.60
2022-08-11T20:48:14.746Z,3.40
2022-08-11T20:51:11.157Z,3.43
2022-08-11T20:54:05.677Z,3.50
2022-08-11T20:56:54.682Z,3.70
2022-08-11T20:59:56.538Z,3.70
2022-08-11T21:02:44.933Z,4.77
2022-08-11T21:06:09.125Z,3.53
2022-08-11T21:08:41.759Z,3.20
2022-08-11T21:11:30.127Z,4.10
2022-08-11T21:14:16.907Z,3.40
2022-08-11T21:17:27.960Z,3.50
2022-08-11T21:20:20.399Z,3.30
2022-08-11T21:23:14.956Z,3.50
2022-08-11T21:26:15.568Z,3.93
2022-08-11T21:29:01.971Z,3.63
2022-08-11T21:31:50.779Z,3.67
2022-08-11T21:34:39.767Z,3.77
2022-08-11T21:37:27.490Z,3.33
2022-08-11T21:40:17.420Z,3.57
2022-08-11T21:43:05.713Z,3.50
2022-08-11T21:45:54.483Z,3.63
2022-08-11T21:48:42.345Z,3.77
2022-08-11T21:51:27.931Z,3.87
2022-08-11T21:54:15.432Z,3.70
2022-08-11T21:57:04.277Z,3.20
2022-08-11T21:59:56.742Z,3.33
2022-08-11T22:02:44.580Z,3.67
2022-08-11T22:05:39.008Z,3.37
2022-08-11T22:08:25.607Z,3.70
2022-08-11T22:11:11.023Z,3.33
2022-08-11T22:14:05.730Z,3.50
2022-08-11T22:16:53.688Z,4.00
2022-08-11T22:19:40.296Z,4.00
2022-08-11T22:22:26.683Z,3.47
2022-08-11T22:25:16.285Z,3.00
2022-08-11T22:28:06.101Z,4.17
2022-08-11T22:30:53.584Z,3.70
2022-08-11T22:33:51.715Z,3.97
2022-08-11T22:36:47.366Z,3.73
2022-08-11T22:39:35.312Z,3.27
2022-08-11T22:42:24.075Z,3.70
2022-08-11T22:45:19.370Z,3.80
2022-08-11T22:48:07.514Z,3.53
2022-08-11T22:50:55.082Z,3.40
2022-08-11T22:53:57.470Z,3.83
2022-08-11T22:56:46.416Z,3.83
2022-08-11T22:59:33.338Z,3.73
2022-08-11T23:02:19.635Z,3.70
2022-08-11T23:05:07.390Z,4.17
2022-08-11T23:07:54.458Z,4.17
2022-08-11T23:10:40.850Z,3.80
2022-08-11T23:13:27.140Z,4.53
2022-08-11T23:16:14.252Z,4.17
2022-08-11T23:19:00.706Z,3.50
2022-08-11T23:21:49.581Z,3.50
2022-08-11T23:24:35.911Z,4.20
2022-08-11T23:27:22.679Z,4.20
2022-08-11T23:30:11.187Z,4.27
2022-08-11T23:32:58.404Z,4.27
2022-08-11T23:35:53.619Z,4.30
2022-08-11T23:38:43.856Z,4.17
2022-08-11T23:41:32.335Z,4.27
2022-08-11T23:44:19.655Z,4.53
2022-08-11T23:47:06.895Z,4.53
2022-08-11T23:49:54.206Z,5.07
2022-08-11T23:52:41.800Z,4.57
2022-08-11T23:55:29.782Z,4.60
2022-08-11T23:58:16.454Z,4.47
